Usti nad Labem, Czech Republic
Current Conditions -  °F | °C
As of 5:50 AM on Tuesday 21 Oct 2014 (Local Time) from EDDC Reporting Station
Broken Clouds Broken Clouds  
Wind Chill: 52°   Ceiling: 6600
Heat Index: 52°   Visibility: 6mi
Dew Point: 46°   Wind: 6mph
Humidity: 82%   Direction: 240°WSW
Pressure: 29.85"   Gusts: NA
Location:  50.7°N, 14.06°E
Report Text: EDDC 210350Z 24005KT 9999 FEW034 BKN066 11/08 Q1011 NOSIG
Loading
Personal Weather Stations






























Interactive Weather Map
Tropical Storm Tracking
New forecast layout! Learn more

10-Day Weather Forecast

Advertisements
Track Severe Weather on mobile